Red Lake, Texas
Current Conditions -  °F | °C
As of 6:35 AM on Sunday 21 Dec 2014 (Local Time) from KPSN Reporting Station
Haze Haze  
Wind Chill: 45°   Ceiling: 2500
Heat Index: 45°   Visibility: 5mi
Dew Point: 44°   Wind: 3mph
Humidity: 98%   Direction: 120°ESE
Pressure: 30.15"   Gusts: NA
Location:  31.5818°N, 95.8921°W
Report Text: KPSN 211235Z AUTO 12003KT 5SM BR SCT017 OVC025 07/06 A3015 RMK AO2 T00700067
Loading
Personal Weather Stations






























Interactive Weather Map New forecast layout! Learn more

10-Day Weather Forecast

Advertisements
Track Severe Weather on mobile